sensor_id;sensor_type;location;lat;lon;timestamp;pressure;altitude;pressure_sealevel;temperature;humidity
23166;BME280;11751;42.700;24.170;2023-10-31T00:00:05;94201.88;;;10.75;100.00
23166;BME280;11751;42.700;24.170;2023-10-31T00:02:31;94199.28;;;10.77;100.00
23166;BME280;11751;42.700;24.170;2023-10-31T00:04:56;94200.72;;;10.63;100.00
23166;BME280;11751;42.700;24.170;2023-10-31T00:07:22;94200.34;;;10.59;100.00
23166;BME280;11751;42.700;24.170;2023-10-31T00:09:47;94206.50;;;10.65;100.00
23166;BME280;11751;42.700;24.170;2023-10-31T00:12:13;94202.56;;;10.61;100.00
23166;BME280;11751;42.700;24.170;2023-10-31T00:14:39;94206.72;;;10.67;100.00
23166;BME280;11751;42.700;24.170;2023-10-31T00:17:04;94202.94;;;10.57;100.00
23166;BME280;11751;42.700;24.170;2023-10-31T00:19:29;94203.13;;;10.59;100.00
23166;BME280;11751;42.700;24.170;2023-10-31T00:21:55;94190.94;;;10.42;100.00
23166;BME280;11751;42.700;24.170;2023-10-31T00:24:20;94189.47;;;10.48;100.00
23166;BME280;11751;42.700;24.170;2023-10-31T00:26:46;94193.78;;;10.49;100.00
23166;BME280;11751;42.700;24.170;2023-10-31T00:29:11;94185.91;;;10.40;100.00
23166;BME280;11751;42.700;24.170;2023-10-31T00:31:36;94181.41;;;10.37;100.00
23166;BME280;11751;42.700;24.170;2023-10-31T00:34:06;94177.09;;;10.36;100.00
23166;BME280;11751;42.700;24.170;2023-10-31T00:36:31;94178.94;;;10.26;100.00
23166;BME280;11751;42.700;24.170;2023-10-31T00:38:56;94175.22;;;10.31;100.00
23166;BME280;11751;42.700;24.170;2023-10-31T00:41:22;94172.59;;;10.33;100.00
23166;BME280;11751;42.700;24.170;2023-10-31T00:43:47;94172.81;;;10.35;100.00
23166;BME280;11751;42.700;24.170;2023-10-31T00:46:13;94171.50;;;10.36;100.00
23166;BME280;11751;42.700;24.170;2023-10-31T00:48:38;94179.75;;;10.42;100.00
23166;BME280;11751;42.700;24.170;2023-10-31T00:51:04;94179.69;;;10.34;100.00
23166;BME280;11751;42.700;24.170;2023-10-31T00:53:30;94177.50;;;10.40;100.00
23166;BME280;11751;42.700;24.170;2023-10-31T00:55:55;94173.94;;;10.40;100.00
23166;BME280;11751;42.700;24.170;2023-10-31T00:58:20;94174.88;;;10.35;100.00
23166;BME280;11751;42.700;24.170;2023-10-31T01:00:46;94166.06;;;10.31;100.00
23166;BME280;11751;42.700;24.170;2023-10-31T01:03:11;94163.63;;;10.27;100.00
23166;BME280;11751;42.700;24.170;2023-10-31T01:05:37;94166.97;;;10.19;100.00
23166;BME280;11751;42.700;24.170;2023-10-31T01:08:02;94163.75;;;10.15;100.00
23166;BME280;11751;42.700;24.170;2023-10-31T01:10:28;94167.84;;;10.06;100.00
23166;BME280;11751;42.700;24.170;2023-10-31T01:12:53;94165.03;;;10.06;100.00
23166;BME280;11751;42.700;24.170;2023-10-31T01:15:18;94168.66;;;9.94;100.00
23166;BME280;11751;42.700;24.170;2023-10-31T01:17:44;94157.09;;;9.90;100.00
23166;BME280;11751;42.700;24.170;2023-10-31T01:20:09;94162.69;;;9.90;100.00
23166;BME280;11751;42.700;24.170;2023-10-31T01:22:36;94164.19;;;9.91;100.00
23166;BME280;11751;42.700;24.170;2023-10-31T01:25:02;94170.88;;;9.88;100.00
23166;BME280;11751;42.700;24.170;2023-10-31T01:27:27;94161.19;;;9.89;100.00
23166;BME280;11751;42.700;24.170;2023-10-31T01:29:53;94170.16;;;9.95;100.00
23166;BME280;11751;42.700;24.170;2023-10-31T01:32:18;94162.13;;;9.91;100.00
23166;BME280;11751;42.700;24.170;2023-10-31T01:34:43;94160.75;;;9.77;100.00
23166;BME280;11751;42.700;24.170;2023-10-31T01:37:09;94157.41;;;9.79;100.00
23166;BME280;11751;42.700;24.170;2023-10-31T01:39:36;94154.69;;;9.66;100.00
23166;BME280;11751;42.700;24.170;2023-10-31T01:42:01;94147.97;;;9.61;100.00
23166;BME280;11751;42.700;24.170;2023-10-31T01:44:27;94159.13;;;9.54;100.00
23166;BME280;11751;42.700;24.170;2023-10-31T01:46:52;94155.56;;;9.53;100.00
23166;BME280;11751;42.700;24.170;2023-10-31T01:49:17;94142.00;;;9.37;100.00
23166;BME280;11751;42.700;24.170;2023-10-31T01:51:44;94142.44;;;9.41;100.00
23166;BME280;11751;42.700;24.170;2023-10-31T01:54:10;94143.44;;;9.51;100.00
23166;BME280;11751;42.700;24.170;2023-10-31T01:56:36;94139.13;;;9.50;100.00
23166;BME280;11751;42.700;24.170;2023-10-31T01:59:05;94138.72;;;9.46;100.00
23166;BME280;11751;42.700;24.170;2023-10-31T02:01:30;94138.94;;;9.48;100.00
23166;BME280;11751;42.700;24.170;2023-10-31T02:03:56;94139.63;;;9.41;100.00
23166;BME280;11751;42.700;24.170;2023-10-31T02:06:23;94141.13;;;9.42;100.00
23166;BME280;11751;42.700;24.170;2023-10-31T02:08:49;94128.75;;;9.30;100.00
23166;BME280;11751;42.700;24.170;2023-10-31T02:11:14;94122.88;;;9.21;100.00
23166;BME280;11751;42.700;24.170;2023-10-31T02:13:40;94133.25;;;9.33;100.00
23166;BME280;11751;42.700;24.170;2023-10-31T02:16:06;94137.13;;;9.30;100.00
23166;BME280;11751;42.700;24.170;2023-10-31T02:18:32;94123.44;;;9.19;100.00
23166;BME280;11751;42.700;24.170;2023-10-31T02:20:58;94132.63;;;9.27;100.00
23166;BME280;11751;42.700;24.170;2023-10-31T02:23:24;94127.94;;;9.22;100.00
23166;BME280;11751;42.700;24.170;2023-10-31T02:25:49;94132.03;;;9.21;100.00
23166;BME280;11751;42.700;24.170;2023-10-31T02:28:15;94130.75;;;9.22;100.00
23166;BME280;11751;42.700;24.170;2023-10-31T02:30:40;94140.41;;;9.21;100.00
23166;BME280;11751;42.700;24.170;2023-10-31T02:33:06;94134.28;;;9.23;100.00
23166;BME280;11751;42.700;24.170;2023-10-31T02:35:31;94132.31;;;9.10;100.00
23166;BME280;11751;42.700;24.170;2023-10-31T02:37:57;94129.06;;;8.99;100.00
23166;BME280;11751;42.700;24.170;2023-10-31T02:40:23;94137.31;;;9.04;100.00
23166;BME280;11751;42.700;24.170;2023-10-31T02:42:48;94141.78;;;9.07;100.00
23166;BME280;11751;42.700;24.170;2023-10-31T02:45:14;94142.00;;;9.09;100.00
23166;BME280;11751;42.700;24.170;2023-10-31T02:47:39;94142.47;;;9.00;100.00
23166;BME280;11751;42.700;24.170;2023-10-31T02:50:05;94143.97;;;9.01;100.00
23166;BME280;11751;42.700;24.170;2023-10-31T02:52:31;94147.03;;;8.90;100.00
23166;BME280;11751;42.700;24.170;2023-10-31T02:54:56;94145.34;;;8.87;100.00
23166;BME280;11751;42.700;24.170;2023-10-31T02:57:22;94146.97;;;8.83;100.00
23166;BME280;11751;42.700;24.170;2023-10-31T02:59:47;94147.72;;;8.83;100.00
23166;BME280;11751;42.700;24.170;2023-10-31T03:02:12;94156.97;;;8.78;100.00
23166;BME280;11751;42.700;24.170;2023-10-31T03:04:38;94151.72;;;8.54;100.00
23166;BME280;11751;42.700;24.170;2023-10-31T03:07:03;94149.34;;;8.58;100.00
23166;BME280;11751;42.700;24.170;2023-10-31T03:09:29;94148.59;;;8.58;100.00
23166;BME280;11751;42.700;24.170;2023-10-31T03:11:54;94149.16;;;8.56;100.00
23166;BME280;11751;42.700;24.170;2023-10-31T03:14:20;94154.84;;;8.51;100.00
23166;BME280;11751;42.700;24.170;2023-10-31T03:16:45;94152.25;;;8.53;100.00
23166;BME280;11751;42.700;24.170;2023-10-31T03:19:11;94145.22;;;8.39;100.00
23166;BME280;11751;42.700;24.170;2023-10-31T03:21:36;94148.50;;;8.50;100.00
23166;BME280;11751;42.700;24.170;2023-10-31T03:24:01;94150.00;;;8.51;100.00
23166;BME280;11751;42.700;24.170;2023-10-31T03:26:27;94150.22;;;8.53;100.00
23166;BME280;11751;42.700;24.170;2023-10-31T03:28:52;94142.53;;;8.47;100.00
23166;BME280;11751;42.700;24.170;2023-10-31T03:31:22;94148.75;;;8.40;100.00
23166;BME280;11751;42.700;24.170;2023-10-31T03:33:48;94141.44;;;8.49;100.00
23166;BME280;11751;42.700;24.170;2023-10-31T03:36:13;94147.47;;;8.41;100.00
23166;BME280;11751;42.700;24.170;2023-10-31T03:38:39;94143.41;;;8.42;100.00
23166;BME280;11751;42.700;24.170;2023-10-31T03:41:04;94138.50;;;8.35;100.00
23166;BME280;11751;42.700;24.170;2023-10-31T03:43:29;94140.94;;;8.38;100.00
23166;BME280;11751;42.700;24.170;2023-10-31T03:45:55;94136.09;;;8.39;100.00
23166;BME280;11751;42.700;24.170;2023-10-31T03:48:20;94134.81;;;8.40;100.00
23166;BME280;11751;42.700;24.170;2023-10-31T03:50:46;94140.19;;;8.38;100.00
23166;BME280;11751;42.700;24.170;2023-10-31T03:53:11;94137.59;;;8.40;100.00
23166;BME280;11751;42.700;24.170;2023-10-31T03:55:37;94137.19;;;8.36;100.00
23166;BME280;11751;42.700;24.170;2023-10-31T03:58:02;94138.28;;;8.33;100.00
23166;BME280;11751;42.700;24.170;2023-10-31T04:00:28;94132.16;;;8.34;100.00
23166;BME280;11751;42.700;24.170;2023-10-31T04:02:53;94124.34;;;8.33;100.00
23166;BME280;11751;42.700;24.170;2023-10-31T04:05:18;94118.72;;;8.46;100.00
23166;BME280;11751;42.700;24.170;2023-10-31T04:07:46;94117.59;;;8.48;100.00
23166;BME280;11751;42.700;24.170;2023-10-31T04:10:11;94121.97;;;8.57;100.00
23166;BME280;11751;42.700;24.170;2023-10-31T04:12:37;94127.44;;;8.62;100.00
23166;BME280;11751;42.700;24.170;2023-10-31T04:15:02;94121.09;;;8.62;100.00
23166;BME280;11751;42.700;24.170;2023-10-31T04:17:28;94121.63;;;8.60;100.00
23166;BME280;11751;42.700;24.170;2023-10-31T04:19:53;94112.19;;;8.63;100.00
23166;BME280;11751;42.700;24.170;2023-10-31T04:22:19;94119.94;;;8.57;100.00
23166;BME280;11751;42.700;24.170;2023-10-31T04:24:44;94105.22;;;8.57;100.00
23166;BME280;11751;42.700;24.170;2023-10-31T04:27:09;94109.06;;;8.47;100.00
23166;BME280;11751;42.700;24.170;2023-10-31T04:29:35;94107.56;;;8.46;100.00
23166;BME280;11751;42.700;24.170;2023-10-31T04:32:00;94101.53;;;8.42;100.00
23166;BME280;11751;42.700;24.170;2023-10-31T04:34:26;94094.81;;;8.37;100.00
23166;BME280;11751;42.700;24.170;2023-10-31T04:36:51;94096.50;;;8.40;100.00
23166;BME280;11751;42.700;24.170;2023-10-31T04:39:16;94097.47;;;8.43;100.00
23166;BME280;11751;42.700;24.170;2023-10-31T04:41:42;94095.16;;;8.34;100.00
23166;BME280;11751;42.700;24.170;2023-10-31T04:44:07;94106.56;;;8.23;100.00
23166;BME280;11751;42.700;24.170;2023-10-31T04:46:32;94114.72;;;8.21;100.00
23166;BME280;11751;42.700;24.170;2023-10-31T04:48:58;94119.00;;;8.22;100.00
23166;BME280;11751;42.700;24.170;2023-10-31T04:51:24;94112.03;;;8.15;100.00
23166;BME280;11751;42.700;24.170;2023-10-31T04:53:49;94110.50;;;8.14;100.00
23166;BME280;11751;42.700;24.170;2023-10-31T04:56:17;94107.44;;;8.05;100.00
23166;BME280;11751;42.700;24.170;2023-10-31T04:58:43;94101.50;;;7.88;100.00
23166;BME280;11751;42.700;24.170;2023-10-31T05:01:09;94102.09;;;7.94;100.00
23166;BME280;11751;42.700;24.170;2023-10-31T05:03:34;94105.00;;;7.88;100.00
23166;BME280;11751;42.700;24.170;2023-10-31T05:06:00;94099.34;;;7.81;100.00
23166;BME280;11751;42.700;24.170;2023-10-31T05:08:25;94103.00;;;7.76;100.00
23166;BME280;11751;42.700;24.170;2023-10-31T05:10:51;94119.06;;;7.83;100.00
23166;BME280;11751;42.700;24.170;2023-10-31T05:13:16;94111.59;;;7.78;100.00
23166;BME280;11751;42.700;24.170;2023-10-31T05:15:41;94113.06;;;7.79;100.00
23166;BME280;11751;42.700;24.170;2023-10-31T05:18:07;94110.72;;;7.83;100.00
23166;BME280;11751;42.700;24.170;2023-10-31T05:20:32;94112.66;;;7.75;100.00
23166;BME280;11751;42.700;24.170;2023-10-31T05:22:57;94115.00;;;7.84;100.00
23166;BME280;11751;42.700;24.170;2023-10-31T05:25:23;94116.06;;;7.81;100.00
23166;BME280;11751;42.700;24.170;2023-10-31T05:27:48;94112.00;;;7.82;100.00
23166;BME280;11751;42.700;24.170;2023-10-31T05:30:14;94098.06;;;7.82;100.00
23166;BME280;11751;42.700;24.170;2023-10-31T05:32:39;94096.09;;;7.90;100.00
23166;BME280;11751;42.700;24.170;2023-10-31T05:35:05;94098.25;;;7.97;100.00
23166;BME280;11751;42.700;24.170;2023-10-31T05:37:31;94098.63;;;8.14;100.00
23166;BME280;11751;42.700;24.170;2023-10-31T05:39:56;94104.44;;;8.16;100.00
23166;BME280;11751;42.700;24.170;2023-10-31T05:42:21;94097.72;;;8.32;100.00
23166;BME280;11751;42.700;24.170;2023-10-31T05:44:48;94092.31;;;8.47;100.00
23166;BME280;11751;42.700;24.170;2023-10-31T05:47:14;94103.38;;;8.59;100.00
23166;BME280;11751;42.700;24.170;2023-10-31T05:49:39;94106.25;;;8.67;100.00
23166;BME280;11751;42.700;24.170;2023-10-31T05:52:05;94114.16;;;8.76;100.00
23166;BME280;11751;42.700;24.170;2023-10-31T05:54:30;94120.03;;;8.85;100.00
23166;BME280;11751;42.700;24.170;2023-10-31T05:56:55;94125.13;;;8.94;100.00
23166;BME280;11751;42.700;24.170;2023-10-31T05:59:21;94125.50;;;8.98;100.00
23166;BME280;11751;42.700;24.170;2023-10-31T06:01:46;94130.09;;;9.09;100.00
23166;BME280;11751;42.700;24.170;2023-10-31T06:04:11;94135.59;;;9.01;100.00
23166;BME280;11751;42.700;24.170;2023-10-31T06:06:37;94132.66;;;9.07;100.00
23166;BME280;11751;42.700;24.170;2023-10-31T06:09:04;94138.47;;;8.88;100.00
23166;BME280;11751;42.700;24.170;2023-10-31T06:11:29;94140.84;;;8.84;100.00
23166;BME280;11751;42.700;24.170;2023-10-31T06:13:55;94141.25;;;8.88;100.00
23166;BME280;11751;42.700;24.170;2023-10-31T06:16:20;94145.34;;;8.87;100.00
23166;BME280;11751;42.700;24.170;2023-10-31T06:18:46;94140.38;;;8.93;100.00
23166;BME280;11751;42.700;24.170;2023-10-31T06:21:11;94139.25;;;8.96;100.00
23166;BME280;11751;42.700;24.170;2023-10-31T06:23:37;94141.88;;;8.94;100.00
23166;BME280;11751;42.700;24.170;2023-10-31T06:26:03;94143.50;;;9.10;100.00
23166;BME280;11751;42.700;24.170;2023-10-31T06:28:29;94139.50;;;9.26;100.00
23166;BME280;11751;42.700;24.170;2023-10-31T06:30:54;94137.53;;;9.34;100.00
23166;BME280;11751;42.700;24.170;2023-10-31T06:33:20;94130.69;;;9.42;100.00
23166;BME280;11751;42.700;24.170;2023-10-31T06:35:45;94118.84;;;9.57;100.00
23166;BME280;11751;42.700;24.170;2023-10-31T06:38:10;94117.47;;;9.71;100.00
23166;BME280;11751;42.700;24.170;2023-10-31T06:40:36;94111.19;;;9.85;100.00
23166;BME280;11751;42.700;24.170;2023-10-31T06:43:01;94119.88;;;10.02;100.00
23166;BME280;11751;42.700;24.170;2023-10-31T06:45:27;94116.22;;;10.22;100.00
23166;BME280;11751;42.700;24.170;2023-10-31T06:47:52;94105.47;;;10.41;100.00
23166;BME280;11751;42.700;24.170;2023-10-31T06:50:18;94103.66;;;10.58;100.00
23166;BME280;11751;42.700;24.170;2023-10-31T06:52:43;94105.16;;;10.74;100.00
23166;BME280;11751;42.700;24.170;2023-10-31T06:55:09;94104.78;;;10.85;100.00
23166;BME280;11751;42.700;24.170;2023-10-31T06:57:34;94095.47;;;11.05;100.00
23166;BME280;11751;42.700;24.170;2023-10-31T06:59:59;94085.94;;;11.23;100.00
23166;BME280;11751;42.700;24.170;2023-10-31T07:02:25;94091.34;;;11.43;100.00
23166;BME280;11751;42.700;24.170;2023-10-31T07:04:51;94089.31;;;11.59;100.00
23166;BME280;11751;42.700;24.170;2023-10-31T07:07:16;94090.16;;;11.84;100.00
23166;BME280;11751;42.700;24.170;2023-10-31T07:09:41;94087.84;;;12.12;100.00
23166;BME280;11751;42.700;24.170;2023-10-31T07:12:07;94089.19;;;12.43;100.00
23166;BME280;11751;42.700;24.170;2023-10-31T07:14:32;94084.56;;;12.62;98.92
23166;BME280;11751;42.700;24.170;2023-10-31T07:16:58;94084.44;;;12.84;98.29
23166;BME280;11751;42.700;24.170;2023-10-31T07:19:23;94079.47;;;13.00;97.64
23166;BME280;11751;42.700;24.170;2023-10-31T07:21:48;94075.16;;;13.23;96.13
23166;BME280;11751;42.700;24.170;2023-10-31T07:24:14;94085.06;;;13.49;94.77
23166;BME280;11751;42.700;24.170;2023-10-31T07:26:39;94065.91;;;13.71;94.32
23166;BME280;11751;42.700;24.170;2023-10-31T07:29:05;94072.28;;;13.89;96.22
23166;BME280;11751;42.700;24.170;2023-10-31T07:31:30;94063.06;;;14.05;96.73
23166;BME280;11751;42.700;24.170;2023-10-31T07:33:56;94066.34;;;14.19;95.55
23166;BME280;11751;42.700;24.170;2023-10-31T07:36:22;94064.66;;;14.33;95.08
23166;BME280;11751;42.700;24.170;2023-10-31T07:38:47;94064.06;;;14.51;94.89
23166;BME280;11751;42.700;24.170;2023-10-31T07:41:13;94053.16;;;14.64;94.58
23166;BME280;11751;42.700;24.170;2023-10-31T07:43:38;94062.44;;;14.84;93.82
23166;BME280;11751;42.700;24.170;2023-10-31T07:46:04;94049.47;;;14.98;92.76
23166;BME280;11751;42.700;24.170;2023-10-31T07:48:29;94044.44;;;15.06;92.22
23166;BME280;11751;42.700;24.170;2023-10-31T07:50:54;94056.78;;;15.10;91.31
23166;BME280;11751;42.700;24.170;2023-10-31T07:53:20;94054.56;;;15.09;91.80
23166;BME280;11751;42.700;24.170;2023-10-31T07:55:46;94055.50;;;15.21;91.47
23166;BME280;11751;42.700;24.170;2023-10-31T07:58:11;94059.22;;;15.23;91.14
23166;BME280;11751;42.700;24.170;2023-10-31T08:00:37;94056.75;;;15.37;90.76
23166;BME280;11751;42.700;24.170;2023-10-31T08:03:04;94053.22;;;15.45;88.90
23166;BME280;11751;42.700;24.170;2023-10-31T08:05:29;94047.31;;;15.60;88.10
23166;BME280;11751;42.700;24.170;2023-10-31T08:07:55;94049.88;;;15.75;86.96
23166;BME280;11751;42.700;24.170;2023-10-31T08:10:20;94048.09;;;15.70;86.88
23166;BME280;11751;42.700;24.170;2023-10-31T08:12:45;94043.47;;;15.84;86.70
23166;BME280;11751;42.700;24.170;2023-10-31T08:15:11;94046.91;;;16.11;86.54
23166;BME280;11751;42.700;24.170;2023-10-31T08:17:36;94040.81;;;16.24;85.96
23166;BME280;11751;42.700;24.170;2023-10-31T08:20:02;94040.25;;;16.44;83.98
23166;BME280;11751;42.700;24.170;2023-10-31T08:22:30;94037.69;;;16.48;83.40
23166;BME280;11751;42.700;24.170;2023-10-31T08:24:56;94022.34;;;16.61;82.40
23166;BME280;11751;42.700;24.170;2023-10-31T08:27:21;94022.44;;;16.82;82.24
23166;BME280;11751;42.700;24.170;2023-10-31T08:29:47;94025.66;;;17.07;82.02
23166;BME280;11751;42.700;24.170;2023-10-31T08:32:12;94021.88;;;17.13;80.13
23166;BME280;11751;42.700;24.170;2023-10-31T08:34:37;94009.16;;;17.33;80.07
23166;BME280;11751;42.700;24.170;2023-10-31T08:37:03;94002.78;;;17.54;79.74
23166;BME280;11751;42.700;24.170;2023-10-31T08:39:28;93995.72;;;17.64;78.19
23166;BME280;11751;42.700;24.170;2023-10-31T08:41:56;93969.69;;;17.77;78.05
23166;BME280;11751;42.700;24.170;2023-10-31T08:44:21;93991.13;;;18.01;77.11
23166;BME280;11751;42.700;24.170;2023-10-31T08:46:47;93987.59;;;18.12;76.10
23166;BME280;11751;42.700;24.170;2023-10-31T08:49:13;93980.31;;;18.30;74.22
23166;BME280;11751;42.700;24.170;2023-10-31T08:51:39;93975.66;;;18.34;73.68
23166;BME280;11751;42.700;24.170;2023-10-31T08:54:05;93971.75;;;18.51;72.50
23166;BME280;11751;42.700;24.170;2023-10-31T08:56:30;93975.72;;;18.57;72.28
23166;BME280;11751;42.700;24.170;2023-10-31T08:58:56;93975.75;;;18.80;71.92
23166;BME280;11751;42.700;24.170;2023-10-31T09:01:21;93975.28;;;18.95;71.07
23166;BME280;11751;42.700;24.170;2023-10-31T09:03:47;93961.72;;;19.05;71.73
23166;BME280;11751;42.700;24.170;2023-10-31T09:06:12;93965.09;;;19.24;70.55
23166;BME280;11751;42.700;24.170;2023-10-31T09:08:38;93951.41;;;19.32;70.10
23166;BME280;11751;42.700;24.170;2023-10-31T09:11:04;93956.56;;;19.47;68.90
23166;BME280;11751;42.700;24.170;2023-10-31T09:13:30;93951.97;;;19.65;68.72
23166;BME280;11751;42.700;24.170;2023-10-31T09:15:57;93948.84;;;19.73;67.48
23166;BME280;11751;42.700;24.170;2023-10-31T09:18:23;93947.50;;;19.74;65.55
23166;BME280;11751;42.700;24.170;2023-10-31T09:20:49;93935.75;;;19.79;65.47
23166;BME280;11751;42.700;24.170;2023-10-31T09:23:14;93928.31;;;19.97;64.81
23166;BME280;11751;42.700;24.170;2023-10-31T09:25:40;93912.22;;;20.01;64.96
23166;BME280;11751;42.700;24.170;2023-10-31T09:28:05;93923.00;;;20.28;63.79
23166;BME280;11751;42.700;24.170;2023-10-31T09:30:31;93926.69;;;20.30;62.63
23166;BME280;11751;42.700;24.170;2023-10-31T09:32:56;93919.16;;;20.48;62.43
23166;BME280;11751;42.700;24.170;2023-10-31T09:35:22;93917.19;;;20.51;59.97
23166;BME280;11751;42.700;24.170;2023-10-31T09:37:47;93915.63;;;20.61;60.26
23166;BME280;11751;42.700;24.170;2023-10-31T09:40:14;93907.41;;;20.78;57.59
23166;BME280;11751;42.700;24.170;2023-10-31T09:42:40;93907.59;;;20.82;55.40
23166;BME280;11751;42.700;24.170;2023-10-31T09:45:05;93903.38;;;20.83;56.73
23166;BME280;11751;42.700;24.170;2023-10-31T09:47:31;93892.56;;;21.07;56.29
23166;BME280;11751;42.700;24.170;2023-10-31T09:49:58;93889.28;;;21.12;55.70
23166;BME280;11751;42.700;24.170;2023-10-31T09:52:25;93896.16;;;21.34;55.23
23166;BME280;11751;42.700;24.170;2023-10-31T09:54:52;93885.41;;;21.46;54.26
23166;BME280;11751;42.700;24.170;2023-10-31T09:57:17;93872.63;;;21.47;52.52
23166;BME280;11751;42.700;24.170;2023-10-31T09:59:43;93875.38;;;21.72;51.92
23166;BME280;11751;42.700;24.170;2023-10-31T10:02:08;93869.75;;;21.87;52.87
23166;BME280;11751;42.700;24.170;2023-10-31T10:04:36;93862.53;;;22.00;51.53
23166;BME280;11751;42.700;24.170;2023-10-31T10:07:02;93853.09;;;22.11;52.28
23166;BME280;11751;42.700;24.170;2023-10-31T10:09:28;93864.69;;;22.15;50.89
23166;BME280;11751;42.700;24.170;2023-10-31T10:11:55;93853.09;;;22.11;49.02
23166;BME280;11751;42.700;24.170;2023-10-31T10:14:24;93844.63;;;22.13;49.23
23166;BME280;11751;42.700;24.170;2023-10-31T10:16:50;93843.00;;;22.23;48.00
23166;BME280;11751;42.700;24.170;2023-10-31T10:19:16;93850.78;;;22.36;49.36
23166;BME280;11751;42.700;24.170;2023-10-31T10:24:14;93825.94;;;22.39;49.24
23166;BME280;11751;42.700;24.170;2023-10-31T10:26:39;93833.91;;;22.55;47.55
23166;BME280;11751;42.700;24.170;2023-10-31T10:29:05;93823.22;;;22.71;46.07
23166;BME280;11751;42.700;24.170;2023-10-31T10:31:30;93829.84;;;22.60;46.07
23166;BME280;11751;42.700;24.170;2023-10-31T10:33:55;93820.72;;;22.64;45.49
23166;BME280;11751;42.700;24.170;2023-10-31T10:36:22;93810.97;;;22.84;44.86
23166;BME280;11751;42.700;24.170;2023-10-31T10:41:17;93808.50;;;23.08;nan
23166;BME280;11751;42.700;24.170;2023-10-31T10:43:46;93814.56;;;23.00;nan
23166;BME280;11751;42.700;24.170;2023-10-31T10:46:15;93808.66;;;23.12;nan
23166;BME280;11751;42.700;24.170;2023-10-31T10:48:46;93810.13;;;23.28;nan
23166;BME280;11751;42.700;24.170;2023-10-31T10:51:25;93795.91;;;23.30;nan
23166;BME280;11751;42.700;24.170;2023-10-31T10:53:57;93795.22;;;23.47;nan
23166;BME280;11751;42.700;24.170;2023-10-31T10:56:39;93794.06;;;23.36;nan
23166;BME280;11751;42.700;24.170;2023-10-31T10:59:20;93793.16;;;23.32;nan
23166;BME280;11751;42.700;24.170;2023-10-31T11:01:46;93789.88;;;23.22;nan
23166;BME280;11751;42.700;24.170;2023-10-31T11:04:14;93782.31;;;23.46;nan
23166;BME280;11751;42.700;24.170;2023-10-31T11:06:39;93774.16;;;23.56;nan
23166;BME280;11751;42.700;24.170;2023-10-31T11:09:06;93774.44;;;23.62;nan
23166;BME280;11751;42.700;24.170;2023-10-31T11:11:33;93775.75;;;23.59;nan
23166;BME280;11751;42.700;24.170;2023-10-31T11:14:00;93763.97;;;23.51;nan
23166;BME280;11751;42.700;24.170;2023-10-31T11:16:32;93759.09;;;23.71;nan
23166;BME280;11751;42.700;24.170;2023-10-31T11:18:59;93756.69;;;23.81;nan
23166;BME280;11751;42.700;24.170;2023-10-31T11:21:28;93761.56;;;23.96;nan
23166;BME280;11751;42.700;24.170;2023-10-31T11:23:57;93754.94;;;23.74;nan
23166;BME280;11751;42.700;24.170;2023-10-31T11:26:34;93742.13;;;23.75;nan
23166;BME280;11751;42.700;24.170;2023-10-31T11:29:06;93743.03;;;23.97;nan
23166;BME280;11751;42.700;24.170;2023-10-31T11:31:32;93730.59;;;24.08;nan
23166;BME280;11751;42.700;24.170;2023-10-31T11:34:01;93734.94;;;24.09;nan
23166;BME280;11751;42.700;24.170;2023-10-31T11:36:30;93733.78;;;24.16;nan
23166;BME280;11751;42.700;24.170;2023-10-31T11:39:20;93728.06;;;24.16;nan
23166;BME280;11751;42.700;24.170;2023-10-31T11:44:16;93720.03;;;24.29;nan
23166;BME280;11751;42.700;24.170;2023-10-31T11:46:42;93706.31;;;24.26;nan
23166;BME280;11751;42.700;24.170;2023-10-31T11:49:08;93715.91;;;24.34;nan
23166;BME280;11751;42.700;24.170;2023-10-31T11:51:33;93710.06;;;24.30;nan
23166;BME280;11751;42.700;24.170;2023-10-31T11:54:00;93701.38;;;24.28;nan
23166;BME280;11751;42.700;24.170;2023-10-31T11:56:26;93699.16;;;24.44;nan
23166;BME280;11751;42.700;24.170;2023-10-31T11:59:04;93694.34;;;24.31;nan
23166;BME280;11751;42.700;24.170;2023-10-31T12:01:29;93700.88;;;24.34;nan
23166;BME280;11751;42.700;24.170;2023-10-31T12:03:55;93695.06;;;24.13;nan
23166;BME280;11751;42.700;24.170;2023-10-31T12:06:20;93690.66;;;24.29;nan
23166;BME280;11751;42.700;24.170;2023-10-31T12:08:47;93678.31;;;24.24;nan
23166;BME280;11751;42.700;24.170;2023-10-31T12:11:21;93682.53;;;24.21;nan
23166;BME280;11751;42.700;24.170;2023-10-31T12:14:00;93681.78;;;24.21;nan
23166;BME280;11751;42.700;24.170;2023-10-31T12:16:28;93678.53;;;24.11;nan
23166;BME280;11751;42.700;24.170;2023-10-31T12:18:58;93677.66;;;23.89;nan
23166;BME280;11751;42.700;24.170;2023-10-31T12:21:41;93670.53;;;24.08;nan
23166;BME280;11751;42.700;24.170;2023-10-31T12:24:13;93661.81;;;24.23;nan
23166;BME280;11751;42.700;24.170;2023-10-31T12:26:39;93666.25;;;24.26;nan
23166;BME280;11751;42.700;24.170;2023-10-31T12:29:13;93666.84;;;24.05;nan
23166;BME280;11751;42.700;24.170;2023-10-31T12:31:57;93669.53;;;24.18;nan
23166;BME280;11751;42.700;24.170;2023-10-31T12:34:24;93662.63;;;24.25;nan
23166;BME280;11751;42.700;24.170;2023-10-31T12:36:53;93663.88;;;24.20;nan
23166;BME280;11751;42.700;24.170;2023-10-31T12:39:22;93666.50;;;24.15;nan
23166;BME280;11751;42.700;24.170;2023-10-31T12:41:48;93664.97;;;24.12;nan
23166;BME280;11751;42.700;24.170;2023-10-31T12:44:19;93666.66;;;24.18;nan
23166;BME280;11751;42.700;24.170;2023-10-31T12:46:46;93663.97;;;24.22;nan
23166;BME280;11751;42.700;24.170;2023-10-31T12:49:12;93661.03;;;24.20;nan
23166;BME280;11751;42.700;24.170;2023-10-31T12:51:54;93652.75;;;24.28;nan
23166;BME280;11751;42.700;24.170;2023-10-31T12:54:31;93646.84;;;24.24;nan